Time;durP1;ratioP1;P1;durP2;ratioP2;P2;SDS_P1;SDS_P2;PMS_P1;PMS_P2;Temp;Humidity;BMP_temperature;BMP_pressure;BME280_temperature;BME280_humidity;BME280_pressure;Samples;Min_cycle;Max_cycle;Signal;HPM_P1;HPM_P2
2022/03/25 00:00:25;;;;;;;17.63;15.73;;;11.30;50.40;;;;;;4996660;28;20240;-88
2022/03/25 00:02:51;;;;;;;20.40;16.33;;;11.30;50.60;;;;;;4988131;28;20659;-88
2022/03/25 00:05:17;;;;;;;17.27;15.47;;;11.20;50.70;;;;;;5007998;28;20215;-89
2022/03/25 00:07:43;;;;;;;18.10;15.27;;;11.20;51.10;;;;;;4987084;28;20243;-88
2022/03/25 00:10:09;;;;;;;18.17;16.27;;;11.20;50.80;;;;;;4986436;28;20188;-89
2022/03/25 00:12:35;;;;;;;16.87;15.17;;;11.10;51.00;;;;;;4993840;28;20190;-89
2022/03/25 00:15:01;;;;;;;18.33;16.03;;;11.00;51.40;;;;;;4992150;28;20245;-89
2022/03/25 00:17:27;;;;;;;18.10;15.23;;;10.90;51.50;;;;;;4987563;28;20254;-89
2022/03/25 00:19:53;;;;;;;17.10;15.40;;;10.90;51.90;;;;;;5005153;28;20183;-89
2022/03/25 00:22:18;;;;;;;18.33;16.33;;;10.90;51.80;;;;;;4989616;28;20942;-89
2022/03/25 00:24:44;;;;;;;15.93;14.53;;;11.00;51.50;;;;;;4985256;28;20183;-88
2022/03/25 00:27:10;;;;;;;18.17;16.33;;;11.10;51.50;;;;;;4993031;28;20218;-88
2022/03/25 00:29:36;;;;;;;18.27;16.13;;;11.10;51.30;;;;;;5001394;28;20203;-90
2022/03/25 00:32:03;;;;;;;17.77;15.80;;;11.10;51.50;;;;;;4993965;28;20254;-89
2022/03/25 00:34:29;;;;;;;17.20;15.30;;;10.90;51.80;;;;;;4993416;28;20195;-89
2022/03/25 00:36:54;;;;;;;19.03;16.13;;;10.90;51.90;;;;;;4998239;28;20235;-89
2022/03/25 00:39:20;;;;;;;17.53;14.60;;;10.90;51.80;;;;;;4996441;28;20193;-90
2022/03/25 00:41:47;;;;;;;16.23;14.53;;;10.80;52.40;;;;;;4996202;28;20197;-89
2022/03/25 00:44:14;;;;;;;16.50;14.90;;;10.90;52.40;;;;;;4981877;28;20254;-89
2022/03/25 00:46:40;;;;;;;15.60;13.90;;;10.80;52.30;;;;;;5002215;28;20206;-89
2022/03/25 00:49:06;;;;;;;15.83;14.23;;;10.80;52.80;;;;;;4980385;28;20213;-89
2022/03/25 00:51:32;;;;;;;18.53;15.53;;;10.60;53.10;;;;;;4987867;28;20202;-89
2022/03/25 00:53:57;;;;;;;15.77;14.17;;;10.60;52.90;;;;;;4991982;28;20189;-89
2022/03/25 00:56:24;;;;;;;15.13;13.53;;;10.50;53.50;;;;;;4992142;28;20211;-89
2022/03/25 00:58:50;;;;;;;16.30;14.63;;;10.50;53.50;;;;;;5004110;28;20179;-89
2022/03/25 01:01:16;;;;;;;15.50;13.40;;;10.70;53.00;;;;;;4986702;28;20187;-89
2022/03/25 01:03:43;;;;;;;17.10;15.23;;;10.70;52.80;;;;;;4990690;28;20197;-89
2022/03/25 01:06:09;;;;;;;16.80;15.07;;;10.70;53.00;;;;;;4948101;28;1073319;-89
2022/03/25 01:08:35;;;;;;;15.93;14.40;;;10.40;53.50;;;;;;4995892;28;20233;-87
2022/03/25 01:11:04;;;;;;;15.93;14.27;;;10.40;53.60;;;;;;5003947;28;20187;-89
2022/03/25 01:13:33;;;;;;;18.00;14.60;;;10.20;53.90;;;;;;4985714;28;20221;-89
2022/03/25 01:16:01;;;;;;;15.80;14.30;;;10.10;54.20;;;;;;5002977;28;20201;-89
2022/03/25 01:18:27;;;;;;;16.40;14.70;;;10.10;54.20;;;;;;5003060;28;20558;-89
2022/03/25 01:20:52;;;;;;;14.40;13.07;;;10.10;54.40;;;;;;5004066;28;20184;-88
2022/03/25 01:23:18;;;;;;;15.30;13.70;;;10.00;54.50;;;;;;5003885;28;20198;-89
2022/03/25 01:25:44;;;;;;;15.07;13.47;;;10.10;54.20;;;;;;4970105;28;20293;-90
2022/03/25 01:28:09;;;;;;;16.93;14.30;;;10.10;54.40;;;;;;4972130;28;20191;-88
2022/03/25 01:30:35;;;;;;;15.73;13.93;;;10.00;54.80;;;;;;4982912;28;20201;-89
2022/03/25 01:33:03;;;;;;;14.47;12.97;;;10.00;54.80;;;;;;4986374;28;20183;-89
2022/03/25 01:35:28;;;;;;;16.23;14.63;;;10.00;54.40;;;;;;5012382;28;20221;-89
2022/03/25 01:37:54;;;;;;;14.23;12.73;;;10.00;54.60;;;;;;5013344;28;20454;-89
2022/03/25 01:40:20;;;;;;;15.60;13.63;;;10.00;54.70;;;;;;5013356;28;20174;-88
2022/03/25 01:42:46;;;;;;;14.47;13.03;;;9.90;54.80;;;;;;4990040;28;20272;-90
2022/03/25 01:45:12;;;;;;;19.33;13.53;;;9.90;55.00;;;;;;4967251;28;20729;-89
2022/03/25 01:47:39;;;;;;;15.03;13.63;;;9.90;55.30;;;;;;4984229;28;20210;-89
2022/03/25 01:50:12;;;;;;;15.10;13.47;;;9.80;56.20;;;;;;4967166;28;20199;-89
2022/03/25 01:52:39;;;;;;;15.03;13.53;;;9.80;55.50;;;;;;4985695;28;20167;-89
2022/03/25 01:55:17;;;;;;;13.50;12.10;;;9.80;55.40;;;;;;4985392;28;20245;-89
2022/03/25 01:57:43;;;;;;;14.67;13.10;;;9.80;55.30;;;;;;5001892;28;20198;-89
2022/03/25 02:00:10;;;;;;;15.10;13.53;;;9.70;56.00;;;;;;5002835;28;20210;-89
2022/03/25 02:02:39;;;;;;;14.47;12.97;;;9.60;55.90;;;;;;4989304;28;20191;-89
2022/03/25 02:05:06;;;;;;;14.27;12.73;;;9.60;56.10;;;;;;4992439;28;20187;-89
2022/03/25 02:07:31;;;;;;;15.03;13.43;;;9.50;56.30;;;;;;5003090;28;20213;-89
2022/03/25 02:09:59;;;;;;;13.80;12.47;;;9.40;56.50;;;;;;4981986;28;20267;-89
2022/03/25 02:12:25;;;;;;;14.37;12.90;;;9.30;56.80;;;;;;4992606;28;20178;-88
2022/03/25 02:14:51;;;;;;;18.30;13.13;;;9.30;57.00;;;;;;4995385;28;20182;-89
2022/03/25 02:17:17;;;;;;;13.33;11.93;;;9.20;57.10;;;;;;4991678;28;20711;-89
2022/03/25 02:19:42;;;;;;;13.97;12.47;;;9.10;57.20;;;;;;4986946;28;20218;-89
2022/03/25 02:22:08;;;;;;;15.57;14.00;;;9.20;57.10;;;;;;4993439;28;20486;-90
2022/03/25 02:24:34;;;;;;;13.33;11.93;;;9.20;56.90;;;;;;5003036;28;20190;-89
2022/03/25 02:27:02;;;;;;;13.90;12.43;;;9.20;56.70;;;;;;5009095;28;20210;-89
2022/03/25 02:29:28;;;;;;;13.87;12.40;;;9.10;57.10;;;;;;4987174;28;20198;-90
2022/03/25 02:31:53;;;;;;;13.60;12.13;;;9.10;57.40;;;;;;4998229;28;20190;-89
2022/03/25 02:34:19;;;;;;;13.40;12.07;;;9.10;57.50;;;;;;5000542;28;20199;-89
2022/03/25 02:36:46;;;;;;;14.60;12.70;;;9.10;57.50;;;;;;5000543;28;20222;-89
2022/03/25 02:39:14;;;;;;;14.27;12.73;;;9.00;57.00;;;;;;5013422;28;20645;-89
2022/03/25 02:41:41;;;;;;;13.83;12.33;;;9.00;57.60;;;;;;4966216;28;20214;-89
2022/03/25 02:44:08;;;;;;;14.07;12.67;;;9.00;57.20;;;;;;5008408;28;20217;-89
2022/03/25 02:46:34;;;;;;;13.77;12.37;;;9.00;57.10;;;;;;4991730;28;20219;-89
2022/03/25 02:48:59;;;;;;;13.87;12.47;;;9.00;57.40;;;;;;5013662;28;20205;-89
2022/03/25 02:51:25;;;;;;;14.00;12.53;;;9.00;57.60;;;;;;4984333;28;20197;-89
2022/03/25 02:53:51;;;;;;;16.00;12.83;;;8.80;57.90;;;;;;5002195;28;20262;-89
2022/03/25 02:56:18;;;;;;;14.83;13.43;;;8.90;58.10;;;;;;4983793;28;20237;-89
2022/03/25 02:58:44;;;;;;;14.80;13.13;;;8.80;57.80;;;;;;4984745;28;20187;-89
2022/03/25 03:01:09;;;;;;;13.70;12.27;;;8.90;58.50;;;;;;4996500;28;20236;-88
2022/03/25 03:03:35;;;;;;;14.53;13.13;;;8.80;57.60;;;;;;4968612;28;20215;-89
2022/03/25 03:06:02;;;;;;;15.90;12.73;;;8.80;57.90;;;;;;5001525;28;20222;-88
2022/03/25 03:08:30;;;;;;;15.00;13.40;;;8.80;57.80;;;;;;4985065;28;20198;-89
2022/03/25 03:10:56;;;;;;;16.47;13.47;;;8.70;58.60;;;;;;4996779;28;20186;-88
2022/03/25 03:13:22;;;;;;;13.60;12.30;;;8.70;57.60;;;;;;4998664;28;20259;-88
2022/03/25 03:15:48;;;;;;;13.87;12.43;;;8.80;57.80;;;;;;5001340;28;20677;-89
2022/03/25 03:18:14;;;;;;;16.40;12.73;;;8.60;58.10;;;;;;4984504;28;20265;-89
2022/03/25 03:20:41;;;;;;;15.00;13.40;;;8.60;58.20;;;;;;5001304;28;20198;-89
2022/03/25 03:23:07;;;;;;;14.43;12.93;;;8.60;58.20;;;;;;5004935;28;20194;-89
2022/03/25 03:25:34;;;;;;;13.60;12.20;;;8.60;58.40;;;;;;4987440;28;20221;-89
2022/03/25 03:28:00;;;;;;;16.37;13.03;;;8.60;58.50;;;;;;5005454;28;20214;-89
2022/03/25 03:30:26;;;;;;;13.47;12.17;;;8.50;58.50;;;;;;4959658;28;20190;-89
2022/03/25 03:32:56;;;;;;;13.83;11.90;;;8.50;58.30;;;;;;4993020;28;20197;-89
2022/03/25 03:35:22;;;;;;;13.33;11.83;;;8.50;58.60;;;;;;5005861;28;20206;-89
2022/03/25 03:37:48;;;;;;;16.17;13.33;;;8.50;58.10;;;;;;5003633;28;20188;-89
2022/03/25 03:40:15;;;;;;;13.33;11.93;;;8.40;58.20;;;;;;4978514;28;20190;-89
2022/03/25 03:42:41;;;;;;;14.20;12.73;;;8.40;58.50;;;;;;4991714;28;20186;-89
2022/03/25 03:45:08;;;;;;;15.30;12.50;;;8.40;58.20;;;;;;5005162;28;20222;-89
2022/03/25 03:47:35;;;;;;;13.57;12.17;;;8.40;58.20;;;;;;4997446;28;20206;-89
2022/03/25 03:50:03;;;;;;;13.50;12.10;;;8.50;58.30;;;;;;4997466;28;20189;-89
2022/03/25 03:52:30;;;;;;;17.10;12.87;;;8.40;58.40;;;;;;5005413;28;20273;-89
2022/03/25 03:54:56;;;;;;;13.43;12.00;;;8.30;58.60;;;;;;5015983;28;20202;-88
2022/03/25 03:57:22;;;;;;;12.97;11.67;;;8.30;58.70;;;;;;5010130;28;20387;-89
2022/03/25 03:59:48;;;;;;;15.13;12.50;;;8.30;58.80;;;;;;5020577;28;20234;-88
2022/03/25 04:02:13;;;;;;;14.57;13.07;;;8.20;58.70;;;;;;5010628;28;20183;-89
2022/03/25 04:04:39;;;;;;;13.40;12.00;;;8.20;58.60;;;;;;4983830;28;20539;-89
2022/03/25 04:07:05;;;;;;;13.50;12.07;;;8.20;58.60;;;;;;5001102;28;20237;-89
2022/03/25 04:09:30;;;;;;;14.47;11.77;;;8.20;58.70;;;;;;4987702;28;20181;-88
2022/03/25 04:11:56;;;;;;;16.97;12.90;;;8.10;59.10;;;;;;5005170;28;20182;-89
2022/03/25 04:14:22;;;;;;;14.60;12.87;;;8.10;59.30;;;;;;4986035;28;20194;-89
2022/03/25 04:16:48;;;;;;;16.20;12.60;;;8.00;59.60;;;;;;4985934;28;20215;-89
2022/03/25 04:19:14;;;;;;;14.53;13.07;;;8.00;59.50;;;;;;4970364;28;20190;-89
2022/03/25 04:21:40;;;;;;;16.00;11.97;;;8.00;59.70;;;;;;5007360;28;20190;-88
2022/03/25 04:24:06;;;;;;;13.23;12.00;;;8.00;59.40;;;;;;5002520;28;20854;-88
2022/03/25 04:26:32;;;;;;;15.23;12.47;;;7.90;59.40;;;;;;5002116;28;20217;-88
2022/03/25 04:28:57;;;;;;;13.97;12.57;;;7.90;59.50;;;;;;5006494;28;20214;-88
2022/03/25 04:31:23;;;;;;;13.47;11.87;;;7.90;59.40;;;;;;5007712;28;20179;-90
2022/03/25 04:33:49;;;;;;;15.30;12.40;;;7.80;59.30;;;;;;5005881;28;20216;-88
2022/03/25 04:36:15;;;;;;;14.30;12.63;;;7.70;59.80;;;;;;4988413;28;20218;-88
2022/03/25 04:38:42;;;;;;;14.77;12.40;;;7.70;59.80;;;;;;4993195;28;20254;-88
2022/03/25 04:41:10;;;;;;;14.23;12.70;;;7.60;60.00;;;;;;5004407;28;20201;-89
2022/03/25 04:43:39;;;;;;;15.60;12.33;;;7.60;60.30;;;;;;5004271;28;20669;-88
2022/03/25 04:46:06;;;;;;;14.60;12.87;;;7.50;60.60;;;;;;5003735;28;20298;-88
2022/03/25 04:48:32;;;;;;;14.93;13.33;;;7.50;60.90;;;;;;4985555;28;20186;-88
2022/03/25 04:50:58;;;;;;;13.80;12.37;;;7.50;60.60;;;;;;4999945;28;20178;-89
2022/03/25 04:53:25;;;;;;;15.90;13.40;;;7.40;60.10;;;;;;5004656;28;20190;-88
2022/03/25 04:55:52;;;;;;;15.63;13.57;;;7.40;60.40;;;;;;4999765;28;20212;-88
2022/03/25 04:58:18;;;;;;;16.27;13.17;;;7.40;60.50;;;;;;4982562;28;20213;-88
2022/03/25 05:00:43;;;;;;;14.73;13.23;;;7.40;60.30;;;;;;4986999;28;20179;-89
2022/03/25 05:03:09;;;;;;;14.90;13.30;;;7.50;60.50;;;;;;4999508;28;20222;-88
2022/03/25 05:05:35;;;;;;;16.13;13.47;;;7.40;60.70;;;;;;4979297;28;20253;-88
2022/03/25 05:08:00;;;;;;;16.43;14.80;;;7.30;59.90;;;;;;4972809;28;20215;-89
2022/03/25 05:10:27;;;;;;;16.00;14.37;;;6.90;61.70;;;;;;5003733;28;20179;-88
2022/03/25 05:12:53;;;;;;;16.47;14.40;;;6.90;62.70;;;;;;4991822;28;20187;-88
2022/03/25 05:15:19;;;;;;;15.20;13.53;;;7.10;62.30;;;;;;4991705;28;20209;-88
2022/03/25 05:17:51;;;;;;;17.10;15.27;;;7.00;61.70;;;;;;4975275;28;20612;-88
2022/03/25 05:20:17;;;;;;;19.53;14.73;;;6.90;62.30;;;;;;4987505;28;20202;-88
2022/03/25 05:22:44;;;;;;;15.63;13.50;;;6.80;61.60;;;;;;5005051;28;20695;-88
2022/03/25 05:25:10;;;;;;;14.97;13.37;;;6.70;62.90;;;;;;5011561;28;20186;-88
2022/03/25 05:28:00;;;;;;;14.57;12.87;;;6.70;63.10;;;;;;5008365;28;20252;-88
2022/03/25 05:30:28;;;;;;;17.67;12.60;;;6.80;62.60;;;;;;5025315;28;20182;-88
2022/03/25 05:32:54;;;;;;;16.60;13.57;;;6.80;62.40;;;;;;5029216;28;20178;-87
2022/03/25 05:35:24;;;;;;;15.20;13.57;;;6.90;62.30;;;;;;5002865;28;20211;-87
2022/03/25 05:37:50;;;;;;;15.30;13.40;;;7.00;62.00;;;;;;5003885;28;20186;-88
2022/03/25 05:40:17;;;;;;;14.73;13.17;;;6.90;62.00;;;;;;4989807;28;20189;-87
2022/03/25 05:42:43;;;;;;;17.10;13.87;;;6.90;62.30;;;;;;5004291;28;20273;-88
2022/03/25 05:45:09;;;;;;;14.80;12.90;;;6.90;61.90;;;;;;4984344;28;20570;-88
2022/03/25 05:47:37;;;;;;;15.80;14.07;;;6.90;62.50;;;;;;4988515;28;20273;-89
2022/03/25 05:50:08;;;;;;;17.17;13.27;;;7.00;62.00;;;;;;5003964;28;20241;-90
2022/03/25 05:52:34;;;;;;;17.53;14.67;;;7.00;62.20;;;;;;4999852;28;20552;-88
2022/03/25 05:55:00;;;;;;;17.47;14.57;;;6.90;62.30;;;;;;4966512;28;20187;-88
2022/03/25 05:57:26;;;;;;;17.77;14.97;;;6.80;63.20;;;;;;4984592;28;20179;-87
2022/03/25 05:59:52;;;;;;;20.47;14.47;;;6.70;63.50;;;;;;4984939;28;20203;-89
2022/03/25 06:02:17;;;;;;;16.73;14.93;;;6.70;62.90;;;;;;5001889;28;20190;-88
2022/03/25 06:04:43;;;;;;;14.93;13.33;;;6.20;65.10;;;;;;4999787;28;20202;-89
2022/03/25 06:07:11;;;;;;;22.67;15.93;;;6.30;66.00;;;;;;5011334;28;20591;-89
2022/03/25 06:09:36;;;;;;;19.33;14.17;;;6.30;65.30;;;;;;4996066;28;20190;-90
2022/03/25 06:12:02;;;;;;;19.53;15.00;;;6.50;65.60;;;;;;5015783;28;20185;-88
2022/03/25 06:14:28;;;;;;;18.17;14.40;;;6.50;65.00;;;;;;5006471;28;20202;-89
2022/03/25 06:16:54;;;;;;;20.40;14.80;;;6.50;65.20;;;;;;5028602;28;20289;-87
2022/03/25 06:19:19;;;;;;;16.93;13.80;;;6.70;64.60;;;;;;5012323;28;20182;-89
2022/03/25 06:21:45;;;;;;;19.27;15.37;;;6.80;64.10;;;;;;5011762;28;20194;-90
2022/03/25 06:24:11;;;;;;;17.70;14.77;;;6.90;63.50;;;;;;4974016;28;20263;-89
2022/03/25 06:26:37;;;;;;;17.40;15.13;;;6.90;63.60;;;;;;5011291;28;20281;-89
2022/03/25 06:29:08;;;;;;;17.20;14.03;;;7.00;63.80;;;;;;5013348;28;20186;-88
2022/03/25 06:31:33;;;;;;;18.00;14.23;;;7.10;63.70;;;;;;5026363;28;20257;-90
2022/03/25 06:33:59;;;;;;;16.53;14.70;;;7.10;63.60;;;;;;5019013;28;20198;-90
2022/03/25 06:36:25;;;;;;;17.00;14.57;;;7.20;63.30;;;;;;5013690;28;20217;-90
2022/03/25 06:38:51;;;;;;;16.03;14.30;;;7.20;64.10;;;;;;4984391;28;20763;-90
2022/03/25 06:41:16;;;;;;;15.93;14.33;;;7.30;63.70;;;;;;5000132;28;20190;-90
2022/03/25 06:43:42;;;;;;;16.47;14.53;;;7.40;63.90;;;;;;4995238;28;20692;-90
2022/03/25 06:46:08;;;;;;;16.37;14.07;;;7.40;63.70;;;;;;5007337;28;20206;-89
2022/03/25 06:48:34;;;;;;;16.87;14.33;;;7.50;63.30;;;;;;5013114;28;20215;-90
2022/03/25 06:51:00;;;;;;;16.70;14.67;;;7.50;63.40;;;;;;5017814;28;20239;-89
2022/03/25 06:53:27;;;;;;;24.70;15.47;;;7.60;63.40;;;;;;5007530;28;20214;-90
2022/03/25 06:55:54;;;;;;;21.90;16.43;;;7.60;63.40;;;;;;5007453;28;20214;-90
2022/03/25 06:58:19;;;;;;;22.30;16.37;;;7.70;63.90;;;;;;4990669;28;20662;-88
2022/03/25 07:00:46;;;;;;;19.63;16.00;;;7.70;64.50;;;;;;4992266;28;20187;-88
2022/03/25 07:03:15;;;;;;;18.20;15.23;;;7.70;64.40;;;;;;5006526;28;20253;-89
2022/03/25 07:05:41;;;;;;;20.93;16.37;;;7.70;65.00;;;;;;4990828;28;20566;-88
2022/03/25 07:08:07;;;;;;;17.33;15.07;;;7.80;64.60;;;;;;4990579;28;20217;-89
2022/03/25 07:10:34;;;;;;;25.87;18.10;;;7.90;64.10;;;;;;4993195;28;20265;-89
2022/03/25 07:13:00;;;;;;;21.73;19.37;;;8.10;64.60;;;;;;4978541;28;20194;-89
2022/03/25 07:15:26;;;;;;;20.70;17.50;;;8.10;62.70;;;;;;4979863;28;20410;-88
2022/03/25 07:17:52;;;;;;;24.93;20.50;;;8.20;62.40;;;;;;4987641;28;20197;-89
2022/03/25 07:20:19;;;;;;;26.57;21.63;;;8.30;61.70;;;;;;5019347;28;20187;-89
2022/03/25 07:22:47;;;;;;;24.17;19.70;;;8.40;61.20;;;;;;5008421;28;20187;-89
2022/03/25 07:25:14;;;;;;;31.97;25.77;;;8.40;60.80;;;;;;5007635;28;20183;-89
2022/03/25 07:27:41;;;;;;;28.97;24.13;;;8.40;59.80;;;;;;5006716;28;20217;-88
2022/03/25 07:30:08;;;;;;;31.60;24.53;;;8.50;59.80;;;;;;4986368;28;20182;-88
2022/03/25 07:32:34;;;;;;;31.70;24.87;;;8.60;60.30;;;;;;5017070;28;20244;-87
2022/03/25 07:34:59;;;;;;;28.63;24.33;;;8.60;59.00;;;;;;4992167;28;20190;-89
2022/03/25 07:37:25;;;;;;;30.50;26.23;;;8.70;58.70;;;;;;4988353;28;20202;-88
2022/03/25 07:39:51;;;;;;;33.10;25.70;;;8.80;57.80;;;;;;4988867;28;20584;-89
2022/03/25 07:42:17;;;;;;;31.67;25.83;;;8.90;57.30;;;;;;5003461;28;20214;-88
2022/03/25 07:44:42;;;;;;;34.30;26.67;;;8.90;56.30;;;;;;4991763;28;20195;-88
2022/03/25 07:47:11;;;;;;;32.13;25.53;;;9.00;56.10;;;;;;4987337;28;20214;-89
2022/03/25 07:49:39;;;;;;;32.33;25.60;;;9.00;56.40;;;;;;5001196;28;20262;-89
2022/03/25 07:52:07;;;;;;;31.77;27.00;;;9.10;56.90;;;;;;5008922;28;20213;-89
2022/03/25 07:54:33;;;;;;;33.90;26.70;;;9.20;56.70;;;;;;5007594;28;20257;-89
2022/03/25 07:56:59;;;;;;;32.80;28.27;;;9.30;56.20;;;;;;5006850;28;20206;-89
2022/03/25 07:59:28;;;;;;;34.60;28.83;;;9.50;55.30;;;;;;4996872;28;20318;-89
2022/03/25 08:01:55;;;;;;;33.50;27.87;;;9.50;54.00;;;;;;4996216;28;20242;-89
2022/03/25 08:04:24;;;;;;;36.80;28.67;;;9.60;53.80;;;;;;4988761;28;20238;-88
2022/03/25 08:06:51;;;;;;;33.60;27.73;;;9.60;53.60;;;;;;5014032;28;20205;-88
2022/03/25 08:09:17;;;;;;;34.80;28.57;;;9.70;54.00;;;;;;5012103;28;20175;-89
2022/03/25 08:11:45;;;;;;;39.93;28.00;;;9.90;53.20;;;;;;5006789;28;20197;-88
2022/03/25 08:14:12;;;;;;;32.90;27.13;;;9.90;53.80;;;;;;5006564;28;20198;-89
2022/03/25 08:16:38;;;;;;;39.47;28.90;;;9.90;52.70;;;;;;5007145;28;20297;-89
2022/03/25 08:19:05;;;;;;;35.30;28.10;;;10.10;52.20;;;;;;4989470;28;20447;-88
2022/03/25 08:21:31;;;;;;;40.27;29.43;;;10.20;51.90;;;;;;4989617;28;20191;-88
2022/03/25 08:29:25;;;;;;;37.37;27.60;;;10.50;51.40;;;;;;5001224;28;20262;-88
2022/03/25 08:31:51;;;;;;;34.10;28.03;;;10.60;50.60;;;;;;5010052;28;20198;-89
2022/03/25 08:34:17;;;;;;;38.63;27.27;;;10.70;50.40;;;;;;5009322;28;20178;-87
2022/03/25 08:36:45;;;;;;;37.53;28.63;;;10.80;50.70;;;;;;4986501;28;20209;-88
2022/03/25 08:39:11;;;;;;;34.20;28.47;;;10.80;49.30;;;;;;4990438;28;20177;-89
2022/03/25 08:41:37;;;;;;;36.53;28.33;;;10.90;50.10;;;;;;5007409;28;20241;-89
2022/03/25 08:44:04;;;;;;;36.17;27.93;;;11.00;49.20;;;;;;4997954;28;20273;-88
2022/03/25 08:46:30;;;;;;;36.20;28.70;;;11.20;49.60;;;;;;5006655;28;20209;-89
2022/03/25 08:48:55;;;;;;;34.97;28.63;;;11.40;48.60;;;;;;4973563;28;20689;-88
2022/03/25 08:51:21;;;;;;;36.57;30.20;;;11.50;48.20;;;;;;4988773;28;20210;-89
2022/03/25 08:53:47;;;;;;;37.57;30.03;;;11.60;47.10;;;;;;5006020;28;20182;-89
2022/03/25 08:56:13;;;;;;;38.23;29.43;;;11.80;47.80;;;;;;4980239;28;20199;-88
2022/03/25 08:58:40;;;;;;;37.87;31.60;;;11.90;47.50;;;;;;4997475;28;20191;-89
2022/03/25 09:01:07;;;;;;;36.07;29.93;;;12.00;47.00;;;;;;4975494;28;20194;-90
2022/03/25 09:03:32;;;;;;;38.90;30.43;;;12.10;46.40;;;;;;5013967;28;20179;-90
2022/03/25 09:05:58;;;;;;;35.90;29.47;;;12.30;45.60;;;;;;4988590;28;20230;-89
2022/03/25 09:08:24;;;;;;;40.47;32.10;;;12.40;45.70;;;;;;5005594;28;20214;-89
2022/03/25 09:10:53;;;;;;;33.27;29.37;;;12.50;45.40;;;;;;5005779;28;20183;-89
2022/03/25 09:13:19;;;;;;;36.53;32.13;;;12.60;45.70;;;;;;4994218;28;20199;-89
2022/03/25 09:15:46;;;;;;;38.37;30.50;;;12.80;44.50;;;;;;4991454;28;20200;-88
2022/03/25 09:18:12;;;;;;;39.13;31.73;;;12.80;44.90;;;;;;5001820;28;20195;-88
2022/03/25 09:20:39;;;;;;;36.73;28.87;;;13.00;44.30;;;;;;4984765;28;20197;-89
2022/03/25 09:23:05;;;;;;;38.80;31.37;;;13.20;44.60;;;;;;5002207;28;20184;-89
2022/03/25 09:25:31;;;;;;;36.63;31.10;;;13.30;43.30;;;;;;4996923;28;20214;-89
2022/03/25 09:27:57;;;;;;;38.60;31.07;;;13.50;43.20;;;;;;4980929;28;20259;-89
2022/03/25 09:30:23;;;;;;;37.23;31.17;;;13.70;42.30;;;;;;4989311;28;20196;-89
2022/03/25 09:32:49;;;;;;;37.23;30.60;;;13.60;42.60;;;;;;4986133;28;20193;-89
2022/03/25 09:35:15;;;;;;;35.97;32.07;;;13.70;42.20;;;;;;4985323;28;20825;-90
2022/03/25 09:37:47;;;;;;;37.90;30.97;;;13.90;41.30;;;;;;4991070;28;20226;-90
2022/03/25 09:40:17;;;;;;;37.33;31.40;;;14.10;40.70;;;;;;4969487;28;20219;-90
2022/03/25 09:42:43;;;;;;;38.13;32.73;;;14.30;40.90;;;;;;4967067;28;20221;-89
2022/03/25 09:45:11;;;;;;;36.87;31.80;;;14.50;39.90;;;;;;4983939;28;20198;-89
2022/03/25 09:47:38;;;;;;;39.93;31.37;;;14.60;41.20;;;;;;4983535;28;20239;-89
2022/03/25 09:50:06;;;;;;;44.13;32.47;;;14.70;41.50;;;;;;5000829;28;20578;-89
2022/03/25 09:52:33;;;;;;;38.10;33.70;;;14.90;39.30;;;;;;5001013;28;20180;-89
2022/03/25 09:54:59;;;;;;;34.77;31.07;;;15.00;38.90;;;;;;5001763;28;20244;-88
2022/03/25 09:57:29;;;;;;;37.17;32.00;;;15.10;39.60;;;;;;5008391;28;20216;-89
2022/03/25 09:59:55;;;;;;;35.57;31.87;;;15.30;39.50;;;;;;4995360;28;20203;-88
2022/03/25 10:02:21;;;;;;;35.97;31.93;;;15.10;39.60;;;;;;4997890;28;20185;-89
2022/03/25 10:04:48;;;;;;;35.93;32.17;;;15.40;38.50;;;;;;5009839;28;20292;-90
2022/03/25 10:07:17;;;;;;;37.67;33.40;;;15.80;37.90;;;;;;4985570;28;20233;-89
2022/03/25 10:09:47;;;;;;;38.57;33.17;;;15.80;37.60;;;;;;5029256;28;20286;-88
2022/03/25 10:12:24;;;;;;;36.67;32.87;;;16.00;37.60;;;;;;4985217;28;20193;-88
2022/03/25 10:15:09;;;;;;;38.07;33.07;;;16.10;37.10;;;;;;4986220;28;20171;-89
2022/03/25 10:17:54;;;;;;;40.13;31.83;;;16.30;37.10;;;;;;4997888;28;20194;-89
2022/03/25 10:20:24;;;;;;;37.57;32.47;;;16.40;36.10;;;;;;4991845;28;20205;-89
2022/03/25 10:22:56;;;;;;;39.43;34.93;;;16.40;35.80;;;;;;4985880;28;20194;-89
2022/03/25 10:25:55;;;;;;;40.63;33.40;;;16.60;35.80;;;;;;4984691;28;20227;-89
2022/03/25 10:28:27;;;;;;;38.53;33.57;;;16.90;35.50;;;;;;4965170;28;20219;-89
2022/03/25 10:30:58;;;;;;;37.33;33.33;;;17.00;35.20;;;;;;5003891;28;20287;-89
2022/03/25 10:33:29;;;;;;;38.30;33.20;;;17.20;34.80;;;;;;4996906;28;20180;-89
2022/03/25 10:36:04;;;;;;;36.80;32.87;;;17.40;35.70;;;;;;4985629;28;20234;-89
2022/03/25 10:38:41;;;;;;;40.73;33.80;;;17.80;33.80;;;;;;4971612;28;20205;-89
2022/03/25 10:41:07;;;;;;;37.27;33.37;;;17.90;32.10;;;;;;4989610;28;20174;-90
2022/03/25 10:43:33;;;;;;;39.13;31.90;;;18.00;32.30;;;;;;5000050;28;20290;-90
2022/03/25 10:45:58;;;;;;;36.60;32.70;;;18.20;32.60;;;;;;5001208;28;20294;-88
2022/03/25 10:48:24;;;;;;;37.27;32.97;;;18.40;32.10;;;;;;5006701;28;20245;-88
2022/03/25 10:51:17;;;;;;;36.90;31.57;;;18.50;31.40;;;;;;5000582;28;20206;-88
2022/03/25 10:53:47;;;;;;;38.30;34.23;;;18.40;31.10;;;;;;5000799;28;20946;-88
2022/03/25 10:56:13;;;;;;;37.50;33.37;;;18.20;31.40;;;;;;4971879;28;20255;-88
2022/03/25 10:58:49;;;;;;;36.83;33.00;;;18.50;31.70;;;;;;4981338;28;20604;-88
2022/03/25 11:01:15;;;;;;;37.93;32.20;;;18.40;31.30;;;;;;4982003;28;20250;-88
2022/03/25 11:03:42;;;;;;;35.33;31.53;;;18.70;31.50;;;;;;5009231;28;20715;-88
2022/03/25 11:06:09;;;;;;;36.83;32.57;;;18.60;31.50;;;;;;5000394;28;20216;-88
2022/03/25 11:08:36;;;;;;;36.67;32.20;;;18.70;31.30;;;;;;4985371;28;20195;-88
2022/03/25 11:11:02;;;;;;;37.43;33.47;;;18.80;30.90;;;;;;4998100;28;20191;-88
2022/03/25 11:13:27;;;;;;;40.43;33.77;;;18.70;30.60;;;;;;4984870;28;20209;-88
2022/03/25 11:15:55;;;;;;;36.80;32.90;;;18.80;30.80;;;;;;4992203;28;20222;-89
2022/03/25 11:18:21;;;;;;;37.63;33.33;;;18.90;30.70;;;;;;4985625;28;20211;-89
2022/03/25 11:20:47;;;;;;;37.07;33.10;;;19.10;30.50;;;;;;4968530;28;20187;-90
2022/03/25 11:23:17;;;;;;;39.90;33.40;;;19.30;30.60;;;;;;4992185;28;20209;-90
2022/03/25 11:25:46;;;;;;;37.63;33.73;;;19.30;30.50;;;;;;4983240;28;20204;-89
2022/03/25 11:28:17;;;;;;;37.93;32.67;;;19.50;30.40;;;;;;4982299;28;20210;-90
2022/03/25 11:30:43;;;;;;;35.70;32.07;;;19.70;30.10;;;;;;4982830;28;20177;-89
2022/03/25 11:33:10;;;;;;;36.80;32.93;;;19.60;29.80;;;;;;5002545;28;20186;-89
2022/03/25 11:35:41;;;;;;;38.55;32.67;;;19.70;30.50;;;;;;5006293;28;20204;-89
2022/03/25 11:38:22;;;;;;;37.33;32.42;;;19.90;29.50;;;;;;4988289;28;20211;-89
2022/03/25 11:40:49;;;;;;;39.47;33.72;;;19.90;29.50;;;;;;4980387;28;20460;-89
2022/03/25 11:43:21;;;;;;;39.15;34.72;;;20.20;29.00;;;;;;4984655;28;20186;-89
2022/03/25 11:46:07;;;;;;;37.13;33.17;;;20.20;28.60;;;;;;4988179;28;20217;-90
2022/03/25 11:48:37;;;;;;;38.25;34.38;;;20.40;28.30;;;;;;4984769;28;20187;-89
2022/03/25 11:51:30;;;;;;;37.28;33.40;;;20.20;28.50;;;;;;5009928;28;20182;-89
2022/03/25 11:53:57;;;;;;;38.60;34.60;;;20.50;28.70;;;;;;4997875;28;20197;-88
2022/03/25 11:56:23;;;;;;;36.92;33.15;;;20.30;28.90;;;;;;4973353;28;20221;-89
2022/03/25 11:58:54;;;;;;;39.65;33.55;;;20.50;29.00;;;;;;5004590;28;20186;-88
2022/03/25 12:01:20;;;;;;;37.75;33.75;;;20.80;28.30;;;;;;4985988;28;20193;-88
2022/03/25 12:03:49;;;;;;;39.15;34.85;;;21.00;27.80;;;;;;4991956;28;20217;-87
2022/03/25 12:06:17;;;;;;;40.70;34.10;;;21.30;28.00;;;;;;4996427;28;20234;-88
2022/03/25 12:09:02;;;;;;;36.92;33.00;;;21.20;28.20;;;;;;5007179;28;20253;-89
2022/03/25 12:11:49;;;;;;;39.20;34.95;;;21.10;28.00;;;;;;4998433;28;20185;-90
2022/03/25 12:14:18;;;;;;;40.25;35.45;;;21.20;28.30;;;;;;4998348;28;20255;-88
2022/03/25 12:16:47;;;;;;;37.92;33.95;;;21.50;28.10;;;;;;4978204;28;20242;-88
2022/03/25 12:19:28;;;;;;;41.97;37.53;;;21.60;27.60;;;;;;5005452;28;20703;-88
2022/03/25 12:22:04;;;;;;;39.13;35.03;;;21.60;28.00;;;;;;5001159;28;20195;-89
2022/03/25 12:24:34;;;;;;;41.20;36.72;;;21.60;27.90;;;;;;4984596;28;20225;-89
2022/03/25 12:27:05;;;;;;;39.63;35.28;;;21.60;28.10;;;;;;4987669;28;20211;-89
2022/03/25 12:29:42;;;;;;;38.65;34.85;;;21.90;28.40;;;;;;4991275;28;20197;-89
2022/03/25 12:32:10;;;;;;;37.45;33.63;;;22.30;27.80;;;;;;4996891;28;20206;-89
2022/03/25 12:34:54;;;;;;;39.05;35.17;;;22.60;27.20;;;;;;4985615;28;20198;-89
2022/03/25 12:37:35;;;;;;;40.08;35.95;;;22.10;26.60;;;;;;5002518;28;20207;-91
2022/03/25 12:40:14;;;;;;;40.25;35.33;;;22.20;26.70;;;;;;4993689;28;20197;-90